Dubuque Regional Airport
KDBQ : now visible

Airfield :











YOU CAN JOIN US ON...

 
LOGIN :

Register | Disclaimer

   EN    FR    IT 

 









Legend :    VFR   Marginal VFR   IFR   Intensive IFR   Very Intensive IFR
Visi :
Ceiling :
>= 8 km
>= 3000ft
5 to 8 km
1000 to 3000 ft
1500m to 5 km
500 to 1000 ft
800 to 1500m
200 to 500 ft
< 800m
< 200 ft
Symbols :   Thunderstorms  Fog  Heavy snow  Heavy precipitations  Wind > 20 kt






- Airport Elevation : 1077 ft
- IATA code : DBQ


KDBQ - Dubuque Regional

CURRENT METAR :
  • 200653Z AUTO 19014KT 10SM CLR 20/16 A2935 RMK AO2 SLP932 T02000161

EXPIRED METARs :
  • 200553Z AUTO 19015KT 10SM CLR 21/17 A2936 RMK AO2 SLP935 T02110167 10272 20211 403000144 56001
  • 200453Z AUTO 19015KT 10SM CLR 22/17 A2936 RMK AO2 SLP936 T02220172

TAF KDBQ
Valid from the 20 at 06:00 until the 21 at 06:00 UTC


200528Z 2006/2106 18015G24KT P6SM SCT070
FM200900 22013KT 6SM -SHRA BR SCT015 OVC050
TEMPO 2009/2013 3SM -TSRA OVC010CB
FM201300 27012KT P6SM OVC015
FM201600 34012G20KT P6SM OVC030
FM201800 33009KT P6SM OVC050
KZAU FIR / North America



MET'MAP, your aeronautical weather chart ! - Copyright ORBIFLY December 2007 - Disclaimer

ORBIFLY MET'MAP TEAM :

Programming & Development : Alexandra Zaïnal
Original concept : Baudouin d'Aumeries
Technical & hardware support : Manuel Goepfert
Assistance : Marc-Olivier Méhu

Contact : metmap@orbifly.com




SOURCES & CREDITS :

   NOAA       Earth
Advisory